Time;durP1;ratioP1;P1;durP2;ratioP2;P2;SDS_P1;SDS_P2;PMS_P1;PMS_P2;Temp;Humidity;BMP_temperature;BMP_pressure;BME280_temperature;BME280_humidity;BME280_pressure;Samples;Min_cycle;Max_cycle;Signal;HPM_P1;HPM_P2
2023/08/17 00:03:34;;;;;;;16.60;15.80;;;;;;;-141.02;99.30;39579.69;5112356;28;20219;-64
2023/08/17 00:06:06;;;;;;;16.45;15.65;;;;;;;-141.02;98.74;39575.88;5112700;28;20294;-60
2023/08/17 00:08:33;;;;;;;16.67;15.88;;;;;;;-141.02;97.39;39562.44;5111907;28;20197;-61
2023/08/17 00:11:00;;;;;;;16.90;16.10;;;;;;;-141.02;96.69;39604.63;5112411;28;20284;-63
2023/08/17 00:13:27;;;;;;;17.33;16.42;;;;;;;-141.02;96.40;39589.28;5112660;28;20203;-65
2023/08/17 00:16:33;;;;;;;17.52;16.63;;;;;;;-141.02;96.01;39593.13;5112616;28;20193;-60
2023/08/17 00:19:14;;;;;;;17.75;16.85;;;;;;;-141.02;95.28;39604.63;5112291;28;20255;-62
2023/08/17 00:22:06;;;;;;;17.42;16.63;;;;;;;-141.02;95.19;39585.44;5112279;28;20267;-62
2023/08/17 00:28:08;;;;;;;17.17;16.38;;;;;;;-141.02;93.71;39589.28;5070172;28;20241;-60
2023/08/17 00:30:37;;;;;;;17.48;16.67;;;;;;;-141.02;93.21;39631.47;5069702;28;20320;-63
2023/08/17 00:33:05;;;;;;;17.60;16.70;;;;;;;-141.02;93.82;39608.47;5069827;28;20232;-66
2023/08/17 00:39:46;;;;;;;17.38;16.50;;;;;;;-141.02;95.61;39616.13;5069720;28;20362;-66
2023/08/17 00:42:15;;;;;;;17.13;16.33;;;;;;;-141.02;95.49;39646.81;5069496;28;20221;-66
2023/08/17 00:44:42;;;;;;;17.08;16.27;;;;;;;-141.02;96.01;39669.84;5069442;28;20202;-67
2023/08/17 00:47:09;;;;;;;16.98;16.17;;;;;;;-141.02;95.85;39635.31;5069434;28;20205;-67
2023/08/17 00:49:36;;;;;;;16.85;16.05;;;;;;;-141.02;95.95;39666.00;5069430;28;20196;-64
2023/08/17 00:52:04;;;;;;;17.05;16.25;;;;;;;-141.02;96.23;39621.91;5069429;28;20198;-64
2023/08/17 00:54:32;;;;;;;17.25;16.45;;;;;;;-141.02;96.20;39631.47;5069202;28;20230;-64
2023/08/17 00:57:00;;;;;;;18.10;17.20;;;;;;;-141.02;94.81;39629.56;5070615;28;20282;-67
2023/08/17 00:59:29;;;;;;;17.80;16.90;;;;;;;-141.02;94.62;39643.00;5073227;28;20236;-65
2023/08/17 01:02:28;;;;;;;17.95;17.05;;;;;;;-141.02;93.66;39643.00;5073219;28;20194;-66
2023/08/17 01:05:46;;;;;;;17.95;17.05;;;;;;;-141.02;93.46;39644.91;5089891;28;20196;-67
2023/08/17 01:15:49;;;;;;;18.00;17.10;;;;;;;-141.02;93.74;39619.97;5116256;28;20181;-58
2023/08/17 01:18:23;;;;;;;17.90;17.00;;;;;;;-141.02;93.39;39614.22;5115298;28;20220;-63
2023/08/17 01:31:01;;;;;;;17.33;16.52;;;;;;;-141.02;94.08;39633.41;5115647;28;20176;-65
2023/08/17 01:37:49;;;;;;;17.58;16.67;;;;;;;-141.02;95.03;39616.13;5052900;28;20230;-63
2023/08/17 01:40:47;;;;;;;17.45;16.65;;;;;;;-141.02;95.88;39631.47;5052464;28;20300;-60
2023/08/17 01:44:00;;;;;;;16.95;16.15;;;;;;;-141.02;96.67;39612.31;5052405;28;20210;-59
2023/08/17 01:46:32;;;;;;;16.83;16.02;;;;;;;-141.02;97.99;39646.81;5052226;28;20191;-60
2023/08/17 01:48:59;;;;;;;16.48;15.77;;;;;;;-141.02;98.76;39627.66;5052207;28;20195;-64
2023/08/17 01:51:29;;;;;;;16.23;15.52;;;;;;;-141.02;99.60;39664.09;5052118;28;20576;-63
2023/08/17 01:54:36;;;;;;;16.63;15.93;;;;;;;-141.02;98.99;39627.66;5052253;28;20196;-62
2023/08/17 01:57:03;;;;;;;16.30;15.60;;;;;;;-141.02;100.00;39658.34;5051972;28;20698;-65
2023/08/17 01:59:30;;;;;;;16.20;15.50;;;;;;;-141.02;100.00;39673.69;5051943;28;20261;-60
2023/08/17 02:01:58;;;;;;;15.45;14.85;;;;;;;-141.02;100.00;39717.78;5051914;28;20199;-64
2023/08/17 02:08:40;;;;;;;14.15;13.65;;;;;;;-141.02;100.00;39727.38;5052082;28;20271;-60
2023/08/17 02:11:53;;;;;;;14.27;13.77;;;;;;;-141.02;100.00;39706.28;5051689;28;20727;-67
2023/08/17 02:15:13;;;;;;;14.30;13.80;;;;;;;-141.02;100.00;39758.06;5051765;28;20195;-67
2023/08/17 02:24:24;;;;;;;11.00;10.70;;;;;;;-141.02;100.00;40072.63;4953621;29;20198;-63
2023/08/17 02:26:51;;;;;;;10.40;10.10;;;;;;;-141.02;100.00;40137.84;4953879;29;20198;-63
2023/08/17 02:32:39;;;;;;;9.52;9.23;;;;;;;-141.02;100.00;40628.94;4966342;28;20218;-63
2023/08/17 02:35:07;;;;;;;8.70;8.50;;;;;;;-141.02;100.00;40736.38;5031377;28;20202;-62
2023/08/17 02:37:34;;;;;;;9.93;9.63;;;;;;;-141.02;100.00;40686.50;5031301;28;20549;-65
2023/08/17 02:40:04;;;;;;;10.13;9.82;;;;;;;-141.02;100.00;40759.41;5031350;28;20228;-66
2023/08/17 02:42:31;;;;;;;9.98;9.68;;;;;;;-141.02;100.00;40797.78;5031169;28;20230;-62
2023/08/17 02:45:13;;;;;;;9.48;9.18;;;;;;;-141.02;100.00;40939.75;5031264;28;20191;-66
2023/08/17 02:51:15;;;;;;;9.10;8.90;;;;;;;-141.02;100.00;41250.59;5046694;28;20192;-60
2023/08/17 02:57:05;;;;;;;9.00;8.80;;;;;;;-141.02;100.00;41791.75;5110361;28;20236;-67
2023/08/17 03:06:27;;;;;;;8.13;7.93;;;;;;;-141.02;100.00;43346.63;5113515;28;20614;-66
2023/08/17 03:12:17;;;;;;;8.10;7.90;;;;;;;-141.02;100.00;44327.91;5113327;28;20601;-64
2023/08/17 03:14:47;;;;;;;8.50;8.30;;;;;;;-141.02;100.00;45167.31;5113167;28;20283;-59
2023/08/17 03:17:14;;;;;;;8.23;8.02;;;;;;;-141.02;100.00;46028.06;5113105;28;20193;-64
2023/08/17 03:23:30;;;;;;;7.50;7.30;;;;;;;-141.02;100.00;49502.13;5113149;28;20267;-65
2023/08/17 03:26:24;;;;;;;7.90;7.70;;;;;;;-141.02;100.00;51828.50;5113224;28;20682;-66
2023/08/17 03:32:14;;;;;;;7.90;7.70;;;;;;;-141.02;100.00;55526.28;5113001;28;20168;-66
2023/08/17 03:34:41;;;;;;;7.90;7.70;;;;;;;-141.02;100.00;56759.78;5113117;28;20217;-65
2023/08/17 03:37:08;;;;;;;7.13;6.93;;;;;;;-141.02;100.00;57006.53;5112841;28;20221;-64
2023/08/17 03:39:35;;;;;;;8.10;7.90;;;;;;;-141.02;100.00;57993.72;5112671;28;20224;-65
2023/08/17 03:42:02;;;;;;;8.55;8.35;;;;;;;-141.02;100.00;57006.53;5112732;28;20654;-63
2023/08/17 03:44:29;;;;;;;8.40;8.20;;;;;;;-141.02;100.00;56266.31;5112970;28;20199;-65
2023/08/17 03:46:56;;;;;;;8.93;8.73;;;;;;;-141.02;100.00;56019.63;5112971;28;20288;-65
2023/08/17 03:49:24;;;;;;;9.18;8.98;;;;;;;-141.02;100.00;56759.78;5112930;28;20204;-63
2023/08/17 03:51:51;;;;;;;9.00;8.80;;;;;;;-141.02;100.00;57006.53;5113137;28;20287;-66
2023/08/17 03:54:18;;;;;;;8.60;8.40;;;;;;;-141.02;100.00;57253.28;5112572;28;20225;-65
2023/08/17 03:56:45;;;;;;;8.27;8.07;;;;;;;-141.02;100.00;57993.72;5112385;28;20655;-65
2023/08/17 03:59:12;;;;;;;8.80;8.60;;;;;;;-141.02;100.00;57746.88;5112387;28;20229;-65
2023/08/17 04:01:39;;;;;;;9.40;9.10;;;;;;;-141.02;100.00;57993.72;5112827;28;20205;-63
2023/08/17 04:04:06;;;;;;;10.00;9.70;;;;;;;-141.02;100.00;57746.88;5112682;28;20193;-65
2023/08/17 04:06:36;;;;;;;10.35;10.05;;;;;;;-141.02;100.00;57746.88;5112759;28;20198;-66
2023/08/17 04:09:03;;;;;;;10.18;9.88;;;;;;;-141.02;100.00;55033.00;5112714;28;20280;-65
2023/08/17 04:11:29;;;;;;;10.77;10.48;;;;;;;-141.02;100.00;51882.41;5112381;28;20197;-66
2023/08/17 04:13:56;;;;;;;11.00;10.70;;;;;;;-141.02;100.00;49288.63;5112907;28;20232;-62
2023/08/17 04:16:23;;;;;;;11.82;11.52;;;;;;;-141.02;100.00;48313.59;5112642;28;20195;-62
2023/08/17 04:18:50;;;;;;;13.35;12.95;;;;;;;-141.02;100.00;47323.47;5112300;28;20292;-66
2023/08/17 04:21:17;;;;;;;12.88;12.48;;;;;;;-141.02;100.00;47456.09;5112571;28;20276;-66
2023/08/17 04:23:46;;;;;;;13.07;12.68;;;;;;;-141.02;100.00;46689.16;5112579;28;20227;-66
2023/08/17 04:26:13;;;;;;;13.40;13.00;;;;;;;-141.02;100.00;45747.53;5112598;28;20262;-66
2023/08/17 04:28:40;;;;;;;12.60;12.20;;;;;;;-141.02;100.00;45524.66;5112562;28;20197;-64
2023/08/17 04:31:07;;;;;;;12.70;12.30;;;;;;;-141.02;100.00;45442.03;5112247;28;20658;-64
2023/08/17 04:33:33;;;;;;;12.40;12.00;;;;;;;-141.02;100.00;44685.16;5116508;28;20201;-61
2023/08/17 04:36:00;;;;;;;13.25;12.85;;;;;;;-141.02;100.00;44450.84;5116300;28;20325;-66
2023/08/17 04:38:27;;;;;;;13.10;12.70;;;;;;;-141.02;100.00;44180.03;5116489;27;20197;-65
2023/08/17 04:40:56;;;;;;;12.90;12.50;;;;;;;-141.02;100.00;43920.78;5116407;28;20312;-66
2023/08/17 04:43:23;;;;;;;12.38;11.98;;;;;;;-141.02;100.00;44130.09;5116119;28;20203;-66
2023/08/17 04:45:49;;;;;;;12.32;11.93;;;;;;;-141.02;100.00;43913.09;5116047;28;20663;-64
2023/08/17 04:48:16;;;;;;;13.25;12.85;;;;;;;-141.02;100.00;43698.00;5116071;28;20197;-63
2023/08/17 04:50:43;;;;;;;13.40;13.00;;;;;;;-141.02;100.00;43580.88;5115939;28;20193;-65
2023/08/17 04:53:10;;;;;;;13.70;13.20;;;;;;;-141.02;100.00;43678.81;5115921;28;20673;-63
2023/08/17 04:55:37;;;;;;;13.93;13.43;;;;;;;-141.02;100.00;43626.97;5116041;28;20228;-64
2023/08/17 04:58:06;;;;;;;14.52;14.02;;;;;;;-141.02;100.00;43511.75;5115934;28;20185;-66
2023/08/17 05:00:33;;;;;;;15.20;14.60;;;;;;;-141.02;100.00;43540.56;5116143;28;20232;-63
2023/08/17 05:03:00;;;;;;;14.80;14.30;;;;;;;-141.02;100.00;43884.28;5115702;28;20677;-61
2023/08/17 05:05:27;;;;;;;14.02;13.52;;;;;;;-141.02;100.00;44187.72;5116024;28;20193;-62
2023/08/17 05:07:54;;;;;;;13.55;13.15;;;;;;;-141.02;100.00;44149.31;5116002;28;20197;-66
2023/08/17 05:10:21;;;;;;;14.23;13.73;;;;;;;-141.02;100.00;44041.75;5115641;28;20660;-59
2023/08/17 05:12:48;;;;;;;15.52;14.93;;;;;;;-141.02;100.00;43845.88;5116007;28;20189;-60
2023/08/17 05:15:17;;;;;;;15.77;15.18;;;;;;;-141.02;100.00;43546.31;5115447;28;20693;-59
2023/08/17 05:17:44;;;;;;;15.65;15.05;;;;;;;-141.02;100.00;43482.94;5115531;28;20296;-58
2023/08/17 05:20:12;;;;;;;15.48;14.88;;;;;;;-141.02;100.00;43500.25;5115410;28;20243;-58
2023/08/17 05:22:39;;;;;;;15.38;14.77;;;;;;;-141.02;100.00;43711.47;5115430;28;20201;-64
2023/08/17 05:25:07;;;;;;;15.70;15.10;;;;;;;-141.02;100.00;43621.22;5115339;28;20651;-64
2023/08/17 05:27:34;;;;;;;15.85;15.25;;;;;;;-141.02;100.00;43613.53;5115654;28;20231;-61
2023/08/17 05:30:01;;;;;;;15.80;15.20;;;;;;;-141.02;100.00;43774.81;5115286;27;20200;-61
2023/08/17 05:32:29;;;;;;;16.55;15.85;;;;;;;-141.02;100.00;43657.69;5115444;27;20193;-58
2023/08/17 05:34:56;;;;;;;16.23;15.52;;;;;;;-141.02;100.00;43500.25;5115110;28;20280;-63
2023/08/17 05:37:23;;;;;;;15.95;15.25;;;;;;;-141.02;100.00;43615.44;5115071;28;20753;-64
2023/08/17 05:39:51;;;;;;;16.20;15.50;;;;;;;-141.02;100.00;43767.16;5115030;28;20319;-66
2023/08/17 05:42:17;;;;;;;15.68;15.00;;;;;;;-141.02;100.00;43651.94;5115059;28;20667;-60
2023/08/17 05:44:45;;;;;;;15.88;15.18;;;;;;;-141.02;100.00;43809.38;5113980;28;20284;-58
2023/08/17 05:47:15;;;;;;;16.50;15.80;;;;;;;-141.02;100.00;43826.66;5114942;28;20291;-65
2023/08/17 05:49:43;;;;;;;16.38;15.68;;;;;;;-141.02;100.00;43907.31;5115192;28;20250;-65
2023/08/17 05:52:10;;;;;;;16.17;15.48;;;;;;;-141.02;100.00;43849.72;5115192;28;20197;-63
2023/08/17 05:54:37;;;;;;;16.30;15.60;;;;;;;-141.02;100.00;43876.59;5115171;28;20199;-64
2023/08/17 05:57:05;;;;;;;16.52;15.73;;;;;;;-141.02;100.00;43842.03;5114760;28;20232;-66
2023/08/17 05:59:32;;;;;;;16.15;15.45;;;;;;;-141.02;100.00;43859.31;5114927;28;20225;-66
2023/08/17 06:01:59;;;;;;;16.85;16.05;;;;;;;-141.02;100.00;43820.91;5115125;28;20284;-66
2023/08/17 06:04:26;;;;;;;16.73;15.93;;;;;;;-141.02;100.00;43792.09;5115146;28;20285;-63
2023/08/17 06:06:54;;;;;;;15.77;15.07;;;;;;;-141.02;100.00;43888.13;5114798;28;20303;-66
2023/08/17 06:09:21;;;;;;;16.13;15.43;;;;;;;-141.02;100.00;43964.94;5114528;28;20199;-66
2023/08/17 06:11:48;;;;;;;16.60;15.80;;;;;;;-141.02;100.00;44034.06;5114806;28;20220;-62
2023/08/17 06:14:15;;;;;;;17.30;16.50;;;;;;;-141.02;100.00;43865.09;5114700;28;20261;-66
2023/08/17 06:16:42;;;;;;;16.70;15.90;;;;;;;-141.02;100.00;43941.91;5114617;28;20193;-60
2023/08/17 06:19:09;;;;;;;17.00;16.20;;;;;;;-141.02;100.00;43920.78;5114650;28;20199;-58
2023/08/17 06:21:36;;;;;;;17.27;16.48;;;;;;;-141.02;100.00;43692.25;5114258;28;20232;-66
2023/08/17 06:24:05;;;;;;;16.95;16.15;;;;;;;-141.02;100.00;43801.72;5114527;28;20225;-66
2023/08/17 06:26:32;;;;;;;16.63;15.82;;;;;;;-141.02;100.00;43630.81;5114451;28;20189;-61
2023/08/17 06:28:59;;;;;;;16.95;16.15;;;;;;;-141.02;100.00;43642.31;5114395;28;20276;-64
2023/08/17 06:31:27;;;;;;;16.85;16.05;;;;;;;-141.02;100.00;43778.66;5114295;28;20207;-62
2023/08/17 06:33:54;;;;;;;17.27;16.48;;;;;;;-141.02;100.00;43922.69;5114027;28;20197;-67
2023/08/17 06:36:21;;;;;;;17.35;16.45;;;;;;;-141.02;99.07;43603.94;5113919;28;20195;-64
2023/08/17 06:38:48;;;;;;;17.67;16.77;;;;;;;-141.02;97.55;43477.19;5113854;28;20288;-63
2023/08/17 06:41:16;;;;;;;17.92;17.02;;;;;;;-141.02;94.26;43275.59;5114059;28;20225;-60
2023/08/17 06:43:43;;;;;;;17.95;17.05;;;;;;;-141.02;94.67;43398.47;5114071;28;20308;-63
2023/08/17 06:46:10;;;;;;;17.92;17.02;;;;;;;-141.02;92.75;43127.75;5114078;28;20228;-63
2023/08/17 06:48:37;;;;;;;17.95;17.05;;;;;;;-141.02;94.55;43246.78;5113940;28;20292;-65
2023/08/17 06:51:05;;;;;;;17.90;17.00;;;;;;;-141.02;92.51;43185.34;5113972;28;20570;-67
2023/08/17 06:53:32;;;;;;;18.30;17.30;;;;;;;-141.02;92.47;43423.44;5113950;28;20246;-62
2023/08/17 06:55:59;;;;;;;18.85;17.85;;;;;;;-141.02;86.23;43008.72;5113354;28;20767;-63
2023/08/17 06:58:27;;;;;;;18.55;17.55;;;;;;;-141.02;80.69;42981.84;5114092;28;20203;-68
2023/08/17 07:00:54;;;;;;;18.77;17.77;;;;;;;-141.02;77.44;43035.59;5113727;28;20311;-62
2023/08/17 07:03:21;;;;;;;18.75;17.75;;;;;;;-141.02;77.06;43312.06;5113735;28;20276;-63
2023/08/17 07:05:48;;;;;;;19.13;18.13;;;;;;;-141.02;74.45;43108.56;5113333;28;20286;-67
2023/08/17 07:08:15;;;;;;;19.35;18.25;;;;;;;-141.02;75.63;43158.47;5113776;28;20284;-58
2023/08/17 07:10:42;;;;;;;19.27;18.17;;;;;;;-141.02;75.03;43008.72;5113311;28;20280;-66
2023/08/17 07:13:08;;;;;;;19.27;18.25;;;;;;;-141.02;73.91;43285.19;5113475;28;20283;-63
2023/08/17 07:15:37;;;;;;;19.23;18.13;;;;;;;-141.02;71.05;43004.88;5113512;28;20280;-62
2023/08/17 07:18:05;;;;;;;19.23;18.13;;;;;;;-141.02;71.80;43077.84;5113409;28;20258;-62
2023/08/17 07:20:32;;;;;;;18.88;17.88;;;;;;;-141.02;71.96;43223.75;5113386;28;20311;-62
2023/08/17 07:22:59;;;;;;;19.15;18.05;;;;;;;-141.02;69.76;43315.91;5113088;28;20200;-60
2023/08/17 07:25:26;;;;;;;19.00;17.90;;;;;;;-141.02;68.30;43388.88;5113332;28;20194;-62
2023/08/17 07:27:53;;;;;;;19.23;18.13;;;;;;;-141.02;67.37;43308.22;5113304;28;20212;-66
2023/08/17 07:30:20;;;;;;;19.02;17.92;;;;;;;-141.02;65.78;43492.56;5112924;28;20292;-59
2023/08/17 07:32:49;;;;;;;19.23;18.23;;;;;;;-141.02;63.65;43285.19;5113208;28;20276;-60
2023/08/17 07:35:16;;;;;;;19.55;18.45;;;;;;;-141.02;63.53;43168.06;5113127;28;20279;-65
2023/08/17 07:37:43;;;;;;;19.70;18.60;;;;;;;-141.02;61.17;43327.44;5112872;28;20279;-64
2023/08/17 07:40:10;;;;;;;19.10;18.00;;;;;;;-141.02;60.56;43367.75;5113025;28;20270;-60
2023/08/17 07:42:38;;;;;;;19.00;17.90;;;;;;;-141.02;62.40;43536.72;5113253;28;20193;-67
2023/08/17 07:45:07;;;;;;;18.90;17.80;;;;;;;-141.02;62.80;43561.69;5112677;28;20193;-63
2023/08/17 07:47:35;;;;;;;18.75;17.65;;;;;;;-141.02;61.49;43696.09;5112634;28;20197;-60
2023/08/17 07:50:04;;;;;;;18.98;17.88;;;;;;;-141.02;61.34;43976.47;5113031;28;20291;-66
2023/08/17 07:52:31;;;;;;;18.77;17.67;;;;;;;-141.02;60.83;43615.44;5112741;28;20200;-66
2023/08/17 07:54:58;;;;;;;18.60;17.50;;;;;;;-141.02;61.59;43642.31;5112798;28;20658;-67
2023/08/17 07:57:25;;;;;;;19.10;18.00;;;;;;;-141.02;60.74;43765.22;5112431;28;20274;-61
2023/08/17 07:59:53;;;;;;;19.00;17.90;;;;;;;-141.02;59.50;43772.91;5112722;28;20189;-65
2023/08/17 08:02:20;;;;;;;18.33;17.33;;;;;;;-141.02;59.52;43920.78;5112469;28;20196;-67
2023/08/17 08:04:47;;;;;;;18.27;17.27;;;;;;;-141.02;57.23;43628.88;5113818;28;20273;-59
2023/08/17 08:07:15;;;;;;;18.65;17.65;;;;;;;-141.02;57.15;43369.66;5112247;28;20207;-65
2023/08/17 08:09:42;;;;;;;18.55;17.55;;;;;;;-141.02;57.69;43673.06;5112776;28;20276;-67
2023/08/17 08:12:09;;;;;;;18.52;17.52;;;;;;;-141.02;58.84;43300.56;5112666;28;20193;-61
2023/08/17 08:14:36;;;;;;;18.33;17.33;;;;;;;-141.02;58.87;43957.25;5112958;28;20289;-63
2023/08/17 08:17:03;;;;;;;18.33;17.33;;;;;;;-141.02;57.87;44060.97;5112644;28;20292;-61
2023/08/17 08:19:32;;;;;;;18.35;17.35;;;;;;;-141.02;57.00;44527.66;5112744;28;20279;-59
2023/08/17 08:21:59;;;;;;;18.67;17.67;;;;;;;-141.02;57.11;44391.28;5112629;28;20220;-67
2023/08/17 08:24:31;;;;;;;18.25;17.25;;;;;;;-141.02;56.92;44329.84;5112604;28;20193;-62
2023/08/17 08:26:58;;;;;;;18.10;17.10;;;;;;;-141.02;56.88;44533.41;5112276;28;20238;-61
2023/08/17 08:29:25;;;;;;;17.80;16.80;;;;;;;-141.02;56.52;44214.59;5112200;28;20755;-60
2023/08/17 08:31:51;;;;;;;18.05;17.05;;;;;;;-141.02;55.91;43922.69;5112193;28;20288;-63
2023/08/17 08:34:18;;;;;;;18.10;17.10;;;;;;;-141.02;57.08;43861.25;5112415;28;20750;-63
2023/08/17 08:36:45;;;;;;;18.05;17.05;;;;;;;-141.02;56.50;44514.22;5112151;28;20228;-66
2023/08/17 08:39:13;;;;;;;18.05;17.05;;;;;;;-141.02;54.91;44775.44;5112497;28;20189;-64
2023/08/17 08:41:41;;;;;;;18.25;17.25;;;;;;;-141.02;55.07;44477.72;5112282;28;20414;-61
2023/08/17 08:44:08;;;;;;;18.33;17.33;;;;;;;-141.02;54.96;44831.16;5112128;28;20673;-66
2023/08/17 08:46:41;;;;;;;18.38;17.38;;;;;;;-141.02;54.63;44437.38;5112350;28;20197;-66
2023/08/17 08:49:11;;;;;;;18.13;17.13;;;;;;;-141.02;55.14;44372.09;5112104;28;20186;-68
2023/08/17 08:51:42;;;;;;;18.20;17.23;;;;;;;-141.02;54.70;44289.50;5111970;28;20678;-67
2023/08/17 08:54:14;;;;;;;18.55;17.55;;;;;;;-141.02;54.42;44306.78;5112378;28;20272;-67
2023/08/17 08:56:46;;;;;;;18.23;17.23;;;;;;;-141.02;54.31;45090.47;5111818;28;20675;-66
2023/08/17 08:59:13;;;;;;;18.75;17.75;;;;;;;-141.02;51.94;44477.72;5112424;28;20185;-64
2023/08/17 09:01:41;;;;;;;18.65;17.65;;;;;;;-141.02;51.72;44533.41;5111863;28;20315;-66
2023/08/17 09:04:08;;;;;;;18.30;17.30;;;;;;;-141.02;51.85;44166.59;5111926;28;20655;-67
2023/08/17 09:06:35;;;;;;;18.50;17.50;;;;;;;-141.02;52.36;44203.06;5111916;28;20204;-67
2023/08/17 09:09:03;;;;;;;18.08;17.08;;;;;;;-141.02;52.25;44314.47;5111853;28;20378;-63
2023/08/17 09:11:31;;;;;;;18.20;17.20;;;;;;;-141.02;52.70;44744.72;5111890;28;20667;-59
2023/08/17 09:13:59;;;;;;;18.20;17.20;;;;;;;-141.02;51.30;44422.03;5111801;28;20201;-66
2023/08/17 09:16:28;;;;;;;18.20;17.20;;;;;;;-141.02;51.22;44617.94;5111772;28;20679;-68
2023/08/17 09:18:55;;;;;;;18.33;17.33;;;;;;;-141.02;50.72;45178.84;5113244;28;20203;-67
2023/08/17 09:21:22;;;;;;;18.80;17.80;;;;;;;-141.02;50.28;45405.53;5115563;28;20221;-68
2023/08/17 09:23:53;;;;;;;18.42;17.42;;;;;;;-141.02;50.36;45428.59;5115726;28;20272;-65
2023/08/17 09:26:21;;;;;;;19.42;18.33;;;;;;;-141.02;48.69;45248.00;5115630;28;20189;-67
2023/08/17 09:28:49;;;;;;;18.55;17.55;;;;;;;-141.02;49.38;45705.25;5115637;28;20573;-67
2023/08/17 09:31:21;;;;;;;18.25;17.25;;;;;;;-141.02;49.69;45403.63;5115458;28;20192;-63
2023/08/17 09:33:51;;;;;;;18.45;17.45;;;;;;;-141.02;48.77;45647.63;5115532;28;20226;-63
2023/08/17 09:36:22;;;;;;;18.52;17.52;;;;;;;-141.02;49.67;45324.84;5115114;28;20197;-64
2023/08/17 09:38:49;;;;;;;18.48;17.48;;;;;;;-141.02;49.36;45171.16;5115395;28;20197;-65
2023/08/17 09:41:17;;;;;;;18.45;17.45;;;;;;;-141.02;48.83;45413.22;5114962;28;20228;-59
2023/08/17 09:43:44;;;;;;;18.58;17.58;;;;;;;-141.02;48.39;45021.31;5114999;28;20715;-67
2023/08/17 09:46:11;;;;;;;18.50;17.50;;;;;;;-141.02;48.56;44831.16;5114926;28;20236;-67
2023/08/17 09:48:40;;;;;;;18.65;17.65;;;;;;;-141.02;48.33;44687.09;5115137;28;20196;-64
2023/08/17 09:51:08;;;;;;;18.63;17.63;;;;;;;-141.02;48.33;44917.59;5115059;28;20196;-68
2023/08/17 09:53:37;;;;;;;18.65;17.65;;;;;;;-141.02;49.03;44909.91;5114713;28;20288;-66
2023/08/17 09:56:08;;;;;;;18.60;17.60;;;;;;;-141.02;49.13;45011.72;5114719;28;20244;-66
2023/08/17 09:58:35;;;;;;;18.30;17.30;;;;;;;-141.02;48.47;44391.28;5115020;28;20197;-64
2023/08/17 10:01:05;;;;;;;18.25;17.25;;;;;;;-141.02;48.65;44904.13;5114615;28;20327;-68
2023/08/17 10:03:34;;;;;;;18.42;17.42;;;;;;;-141.02;48.07;44859.97;5114903;27;20189;-68
2023/08/17 10:06:07;;;;;;;18.42;17.42;;;;;;;-141.02;48.18;45236.47;5114808;28;20193;-68
2023/08/17 10:08:40;;;;;;;18.23;17.23;;;;;;;-141.02;47.92;44683.25;5114535;28;20190;-67
2023/08/17 10:11:09;;;;;;;18.15;17.15;;;;;;;-141.02;48.86;44306.78;5114453;28;20269;-67
2023/08/17 10:13:41;;;;;;;17.73;16.83;;;;;;;-141.02;48.59;45034.75;5114641;28;20276;-63
2023/08/17 10:16:13;;;;;;;18.35;17.35;;;;;;;-141.02;47.90;44871.50;5114639;28;20208;-66
2023/08/17 10:18:51;;;;;;;18.42;17.42;;;;;;;-141.02;47.87;45259.53;5114302;28;20229;-68
2023/08/17 10:21:29;;;;;;;18.08;17.08;;;;;;;-141.02;46.59;45632.25;5114400;28;20223;-68
2023/08/17 10:23:58;;;;;;;18.15;17.20;;;;;;;-141.02;46.57;45029.00;5114188;28;20710;-67
2023/08/17 10:26:25;;;;;;;18.08;17.15;;;;;;;-141.02;46.79;45457.41;5114173;28;20283;-67
2023/08/17 10:28:52;;;;;;;18.35;17.35;;;;;;;-141.02;46.28;45490.06;5114434;28;20281;-67
2023/08/17 10:31:20;;;;;;;17.85;16.95;;;;;;;-141.02;46.29;45947.38;5114036;28;20246;-69
2023/08/17 10:33:49;;;;;;;18.15;17.15;;;;;;;-141.02;46.53;45586.13;5114276;28;20197;-68
2023/08/17 10:36:16;;;;;;;17.95;17.05;;;;;;;-141.02;47.14;45490.06;5114241;28;20281;-67
2023/08/17 10:38:44;;;;;;;18.10;17.20;;;;;;;-141.02;45.86;45501.59;5113900;28;20192;-65
2023/08/17 10:41:13;;;;;;;18.30;17.30;;;;;;;-141.02;46.22;44456.59;5114167;28;20721;-66
2023/08/17 10:43:56;;;;;;;17.80;16.90;;;;;;;-141.02;47.10;44583.38;5114010;28;20280;-63
2023/08/17 10:46:32;;;;;;;18.40;17.40;;;;;;;-141.02;46.14;44748.56;5113797;28;20199;-66
2023/08/17 10:49:03;;;;;;;18.38;17.38;;;;;;;-141.02;44.96;44448.91;5114183;28;20181;-68
2023/08/17 10:51:29;;;;;;;17.83;16.92;;;;;;;-141.02;45.69;45224.94;5114040;27;20249;-66
2023/08/17 10:54:00;;;;;;;17.88;16.98;;;;;;;-141.02;45.31;44786.97;5113639;28;20646;-64
2023/08/17 10:56:28;;;;;;;18.50;17.50;;;;;;;-141.02;46.05;44667.88;5113802;28;20257;-63
2023/08/17 10:58:55;;;;;;;17.83;16.92;;;;;;;-141.02;47.47;44740.88;5113626;28;20193;-66
2023/08/17 11:01:36;;;;;;;17.83;16.92;;;;;;;-141.02;46.83;44786.97;5113771;28;20258;-68
2023/08/17 11:04:12;;;;;;;18.27;17.35;;;;;;;-141.02;46.07;44606.41;5113488;28;20198;-67
2023/08/17 11:06:39;;;;;;;18.15;17.25;;;;;;;-141.02;46.35;44806.19;5113759;28;20189;-65
2023/08/17 11:09:09;;;;;;;18.10;17.20;;;;;;;-141.02;46.18;44356.72;5113349;28;20732;-68
2023/08/17 11:11:36;;;;;;;18.08;17.17;;;;;;;-141.02;46.02;44954.09;5113704;28;20262;-66
2023/08/17 11:14:03;;;;;;;18.55;17.55;;;;;;;-141.02;45.27;44762.00;5113263;28;20355;-68
2023/08/17 11:16:31;;;;;;;18.27;17.27;;;;;;;-141.02;46.00;43596.25;5113265;28;20629;-67
2023/08/17 11:18:59;;;;;;;19.20;18.20;;;;;;;-141.02;46.93;43987.97;5113431;28;20193;-66
2023/08/17 11:21:26;;;;;;;18.20;17.20;;;;;;;-141.02;47.42;43596.25;5113342;28;20229;-67
2023/08/17 11:23:57;;;;;;;18.08;17.17;;;;;;;-141.02;46.26;44479.66;5114121;28;20189;-68
2023/08/17 11:26:27;;;;;;;18.50;17.50;;;;;;;-141.02;46.50;43907.31;5113396;28;20190;-67
2023/08/17 11:28:54;;;;;;;18.33;17.33;;;;;;;-141.02;46.58;43740.25;5112980;28;20285;-67
2023/08/17 11:31:21;;;;;;;18.60;17.60;;;;;;;-141.02;47.00;44049.44;5113177;28;20314;-63
2023/08/17 11:33:50;;;;;;;17.95;17.05;;;;;;;-141.02;45.85;44429.72;5113097;28;20632;-68
2023/08/17 11:36:17;;;;;;;18.73;17.73;;;;;;;-141.02;45.43;44454.69;5112791;28;20578;-70
2023/08/17 11:38:44;;;;;;;19.00;18.00;;;;;;;-141.02;44.80;44556.47;5112840;28;20599;-68
2023/08/17 11:41:12;;;;;;;18.67;17.67;;;;;;;-141.02;45.26;44956.00;5112302;28;20645;-68
2023/08/17 11:43:40;;;;;;;18.38;17.38;;;;;;;-141.02;46.58;43085.50;5112695;28;20683;-69
2023/08/17 11:46:07;;;;;;;18.85;17.85;;;;;;;-141.02;48.00;43596.25;5113014;28;20189;-67
2023/08/17 11:48:34;;;;;;;18.73;17.73;;;;;;;-141.02;47.65;43734.50;5112938;28;20314;-64
2023/08/17 11:51:01;;;;;;;18.67;17.67;;;;;;;-141.02;48.24;43068.22;5112976;28;20200;-67
2023/08/17 11:53:34;;;;;;;18.83;17.75;;;;;;;-141.02;48.00;44070.56;5112972;28;20275;-60
2023/08/17 11:56:01;;;;;;;18.73;17.73;;;;;;;-141.02;47.44;44145.47;5112500;28;20237;-65
2023/08/17 11:58:40;;;;;;;18.73;17.73;;;;;;;-141.02;46.73;43924.63;5112621;28;20287;-66
2023/08/17 12:01:12;;;;;;;18.88;17.88;;;;;;;-141.02;46.53;43822.84;5112584;28;20200;-62
2023/08/17 12:03:40;;;;;;;18.30;17.30;;;;;;;-141.02;46.43;43630.81;5112834;28;20192;-63
2023/08/17 12:06:07;;;;;;;19.45;18.35;;;;;;;-141.02;45.51;43861.25;5112759;28;20193;-65
2023/08/17 12:08:34;;;;;;;19.15;18.05;;;;;;;-141.02;45.04;44180.03;5112789;28;20201;-68
2023/08/17 12:11:03;;;;;;;19.02;17.95;;;;;;;-141.02;46.26;44237.66;5112411;28;20228;-66
2023/08/17 12:13:36;;;;;;;18.77;17.77;;;;;;;-141.02;45.77;43957.25;5112870;28;20225;-61
2023/08/17 12:16:04;;;;;;;18.95;17.85;;;;;;;-141.02;46.79;43711.47;5112365;28;20636;-69
2023/08/17 12:18:35;;;;;;;19.08;17.98;;;;;;;-141.02;47.37;43484.88;5112351;28;20714;-64
2023/08/17 12:21:05;;;;;;;19.10;18.00;;;;;;;-141.02;47.67;43492.56;5112404;28;20659;-63